»·PEaware :: SVW102 NGTA-PHTO

SVW102 :: NGTA-PHTO

FLIGHT INFORMATION

Flight Status: Arrived
Operator: Unknown
More flights by this operator :: More flights under this callsign
Pilot: Charles S. (11412)
Aircraft: AIRBUS A319
(A319)
More flights by this aircraft type
Origin: NGTA Bonriki Intl
Kiribati
Destination: PHTO Hilo Intl
United States
More flights between these airports :: More routes between these airports
Route: TA NIXAM 10N73 DATBE GEBNE
File this flight plan on PilotEdge
Remarks:
Altitude:
(Current/Filed)
39,000ft
Speed:
(Current/Filed)
400kts
Departed: 09-Jun-20 08:53 AM
Arrived: 09-Jun-20 01:57 PM
Distance/Time
Traveled:
2167nm/5:04
Distance/Time
To Go:
Arrived

Flight Plot

Page will automatically refresh every two minutes.


Map Options




Map Legend


Flown Route
Filed Route
Departure Airport
Arrival Airport
Navaid (VOR, NDB)
Fix

Horizontal Profiles

Position Reports

Time Latitude Longitude Heading Altitude Ground
Speed
09-Jun-20 08:46 1.380795 173.146284 277 32ft 0kts
09-Jun-20 08:47 1.380795 173.146284 277 32ft 0kts
09-Jun-20 08:48 1.380795 173.146284 277 32ft 0kts
09-Jun-20 08:49 1.381388 173.145530 358 32ft 19kts
09-Jun-20 08:50 1.382511 173.138316 338 27ft 9kts
09-Jun-20 08:51 1.382686 173.138488 89 28ft 1kts
09-Jun-20 08:52 1.379268 173.166929 96 1140ft 155kts
09-Jun-20 08:53 1.377602 173.211214 48 3640ft 192kts
09-Jun-20 08:54 1.432635 173.238450 19 6260ft 254kts
09-Jun-20 08:55 1.484406 173.287123 57 9455ft 284kts
09-Jun-20 08:56 1.529457 173.353501 56 12906ft 298kts
09-Jun-20 08:57 1.577480 173.423460 55 15970ft 313kts
09-Jun-20 08:58 1.628094 173.496059 55 18674ft 326kts
09-Jun-20 08:59 1.680721 173.571651 55 21113ft 339kts
09-Jun-20 09:00 1.735499 173.650366 55 23290ft 351kts
09-Jun-20 09:01 1.791545 173.731288 55 25300ft 361kts
09-Jun-20 09:02 1.849720 173.815010 55 27080ft 372kts
09-Jun-20 09:03 1.909474 173.900947 55 28649ft 382kts
09-Jun-20 09:04 1.969877 173.987804 55 30054ft 390kts
09-Jun-20 09:05 2.031669 174.076672 55 31331ft 398kts
09-Jun-20 09:06 2.092010 174.163472 55 32433ft 405kts
09-Jun-20 09:07 2.153952 174.252036 55 33433ft 412kts
09-Jun-20 09:08 2.217578 174.343376 55 34367ft 418kts
09-Jun-20 09:09 2.284197 174.439229 55 35227ft 424kts
09-Jun-20 09:10 2.349732 174.533551 55 35990ft 429kts
09-Jun-20 09:11 2.418867 174.633074 55 36693ft 433kts
09-Jun-20 09:12 2.487226 174.731911 55 37513ft 433kts
09-Jun-20 09:13 2.555712 174.830702 55 38206ft 433kts
09-Jun-20 09:14 2.624214 174.929399 55 38811ft 433kts
09-Jun-20 09:15 2.692780 175.028220 54 38899ft 433kts
09-Jun-20 09:16 2.761240 175.126909 54 38899ft 433kts
09-Jun-20 09:17 2.829915 175.225906 54 38898ft 434kts
09-Jun-20 09:18 2.898496 175.324758 54 38900ft 433kts
09-Jun-20 09:19 2.967165 175.423775 54 38900ft 432kts
09-Jun-20 09:20 3.035583 175.522491 55 38900ft 432kts
09-Jun-20 09:21 3.103633 175.620735 55 38900ft 432kts
09-Jun-20 09:22 3.172146 175.719339 55 38900ft 432kts
09-Jun-20 09:23 3.240421 175.817981 55 38900ft 432kts
09-Jun-20 09:24 3.308749 175.916672 55 38900ft 432kts
09-Jun-20 09:25 3.376802 176.014992 55 38900ft 432kts
09-Jun-20 09:26 3.445385 176.114115 55 38900ft 432kts
09-Jun-20 09:27 3.512555 176.213268 57 38900ft 432kts
09-Jun-20 09:28 3.575535 176.315264 58 38900ft 432kts
09-Jun-20 09:29 3.638658 176.417561 58 38900ft 432kts
09-Jun-20 09:30 3.701736 176.519777 58 38900ft 432kts
09-Jun-20 09:31 3.764619 176.621705 58 38900ft 432kts
09-Jun-20 09:32 3.827448 176.723929 58 38900ft 432kts
09-Jun-20 09:33 3.890114 176.825765 58 38900ft 432kts
09-Jun-20 09:34 3.952545 176.927093 58 38900ft 431kts
09-Jun-20 09:35 4.016051 177.030185 57 38900ft 431kts
09-Jun-20 09:36 4.078978 177.132363 57 38900ft 430kts
09-Jun-20 09:37 4.141976 177.234126 57 38900ft 430kts
09-Jun-20 09:38 4.204894 177.335990 57 38899ft 431kts
09-Jun-20 09:39 4.267621 177.437896 57 38900ft 431kts
09-Jun-20 09:40 4.330414 177.539992 57 38900ft 431kts
09-Jun-20 09:41 4.393211 177.642139 57 38900ft 431kts
09-Jun-20 09:42 4.455619 177.744139 57 38900ft 430kts
09-Jun-20 09:43 4.518227 177.846192 57 38900ft 431kts
09-Jun-20 09:44 4.580916 177.948280 57 38900ft 431kts
09-Jun-20 09:45 4.643447 178.050151 57 38900ft 430kts
09-Jun-20 09:46 4.706012 178.152125 57 38900ft 431kts
09-Jun-20 09:47 4.768661 178.254278 57 38900ft 431kts
09-Jun-20 09:48 4.831244 178.356370 57 38900ft 431kts
09-Jun-20 09:49 4.893641 178.458204 57 38900ft 431kts
09-Jun-20 09:50 4.956230 178.560396 57 38900ft 431kts
09-Jun-20 09:51 5.019077 178.663056 58 38900ft 432kts
09-Jun-20 09:52 5.081787 178.765977 58 38899ft 435kts
09-Jun-20 09:53 5.145259 178.869259 58 38900ft 436kts
09-Jun-20 09:54 5.208755 178.972777 58 38900ft 435kts
09-Jun-20 09:55 5.271794 179.075897 59 38900ft 436kts
09-Jun-20 09:56 5.317505 179.150765 59 38900ft 436kts
09-Jun-20 09:57 5.372923 179.241526 59 38900ft 435kts
09-Jun-20 09:58 5.436066 179.344990 59 38900ft 436kts
09-Jun-20 09:59 5.499330 179.448695 59 38900ft 435kts
09-Jun-20 10:00 5.562138 179.551714 59 38900ft 435kts
09-Jun-20 10:01 5.625145 179.655108 59 38900ft 435kts
09-Jun-20 10:02 5.688349 179.759324 59 38900ft 436kts
09-Jun-20 10:03 5.751266 179.862773 59 38900ft 436kts
09-Jun-20 10:04 5.814403 179.966542 59 38900ft 435kts
09-Jun-20 10:05 5.877731 -179.929329 59 38914ft 439kts
09-Jun-20 10:06 5.941293 -179.824748 59 38924ft 439kts
09-Jun-20 10:07 6.004833 -179.720158 59 38924ft 439kts
09-Jun-20 10:08 6.068206 -179.615783 59 38924ft 439kts
09-Jun-20 10:09 6.132071 -179.510954 59 38924ft 439kts
09-Jun-20 10:10 6.195399 -179.406616 59 38924ft 439kts
09-Jun-20 10:11 6.258694 -179.302113 59 38924ft 439kts
09-Jun-20 10:12 6.322073 -179.197493 59 38924ft 439kts
09-Jun-20 10:13 6.385465 -179.092789 59 38924ft 439kts
09-Jun-20 10:14 6.448927 -178.987925 59 38924ft 439kts
09-Jun-20 10:15 6.512112 -178.883434 59 38924ft 439kts
09-Jun-20 10:16 6.575513 -178.778542 59 38924ft 439kts
09-Jun-20 10:17 6.638845 -178.673696 59 38924ft 439kts
09-Jun-20 10:18 6.701966 -178.569133 59 38924ft 438kts
09-Jun-20 10:19 6.765155 -178.464226 59 38924ft 438kts
09-Jun-20 10:20 6.828393 -178.359009 59 38924ft 438kts
09-Jun-20 10:21 6.891498 -178.254230 59 38924ft 438kts
09-Jun-20 10:23 6.954719 -178.149215 59 38924ft 441kts
09-Jun-20 10:24 7.018229 -178.043653 59 38924ft 443kts
09-Jun-20 10:25 7.082265 -177.937199 58 38925ft 443kts
09-Jun-20 10:26 7.146122 -177.831578 58 38925ft 443kts
09-Jun-20 10:27 7.210039 -177.725491 58 38924ft 443kts
09-Jun-20 10:28 7.272466 -177.621525 58 38925ft 443kts
09-Jun-20 10:29 7.337258 -177.513510 58 38925ft 443kts
09-Jun-20 10:30 7.400825 -177.407464 58 38939ft 443kts
09-Jun-20 10:31 7.464060 -177.301675 59 39003ft 443kts
09-Jun-20 10:32 7.527733 -177.194995 59 39024ft 442kts
09-Jun-20 10:33 7.591130 -177.088974 59 39006ft 443kts
09-Jun-20 10:34 7.654625 -176.982759 59 39015ft 443kts
09-Jun-20 10:35 7.716945 -176.878434 59 38992ft 443kts
09-Jun-20 10:36 7.781565 -176.770160 59 38996ft 443kts
09-Jun-20 10:37 7.844870 -176.664026 59 38988ft 443kts
09-Jun-20 10:38 7.908445 -176.557363 59 38940ft 443kts
09-Jun-20 10:38 7.961381 -176.468490 59 38929ft 443kts
09-Jun-20 10:40 8.035487 -176.343978 59 38926ft 443kts
09-Jun-20 10:41 8.098543 -176.237511 59 38927ft 443kts
09-Jun-20 10:41 8.151638 -176.148748 59 38926ft 443kts
09-Jun-20 10:42 8.214343 -176.043419 59 38926ft 443kts
09-Jun-20 10:44 8.289359 -175.917038 59 38926ft 443kts
09-Jun-20 10:44 8.342341 -175.827688 59 38926ft 443kts
09-Jun-20 10:45 8.405664 -175.720820 59 38926ft 443kts
09-Jun-20 10:46 8.469115 -175.613653 59 38926ft 443kts
09-Jun-20 10:47 8.532130 -175.507135 59 38926ft 443kts
09-Jun-20 10:48 8.595201 -175.400438 59 38926ft 443kts
09-Jun-20 10:49 8.658171 -175.293575 59 38926ft 443kts
09-Jun-20 10:50 8.721127 -175.186631 59 38926ft 443kts
09-Jun-20 10:51 8.784181 -175.079679 59 38926ft 442kts
09-Jun-20 10:52 8.846963 -174.973122 59 38926ft 441kts
09-Jun-20 10:53 8.909688 -174.866586 59 38926ft 441kts
09-Jun-20 10:54 8.972526 -174.759771 59 38926ft 441kts
09-Jun-20 10:55 9.035176 -174.653209 59 38926ft 445kts
09-Jun-20 10:56 9.099014 -174.544506 60 38925ft 449kts
09-Jun-20 10:57 9.163131 -174.435998 60 38926ft 450kts
09-Jun-20 10:58 9.227099 -174.326969 60 38926ft 450kts
09-Jun-20 10:59 9.290755 -174.217888 60 38926ft 450kts
09-Jun-20 11:00 9.354163 -174.109479 60 38926ft 450kts
09-Jun-20 11:01 9.418107 -174.000123 60 38926ft 450kts
09-Jun-20 11:02 9.481242 -173.892044 60 38926ft 450kts
09-Jun-20 11:03 9.545245 -173.782386 60 38926ft 450kts
09-Jun-20 11:04 9.609171 -173.672702 59 38926ft 451kts
09-Jun-20 11:05 9.672891 -173.563385 59 38926ft 451kts
09-Jun-20 11:06 9.736529 -173.454072 59 38926ft 451kts
09-Jun-20 11:07 9.800169 -173.344633 60 38926ft 450kts
09-Jun-20 11:08 9.863457 -173.235316 60 38926ft 450kts
09-Jun-20 11:09 9.926892 -173.126057 60 38926ft 450kts
09-Jun-20 11:10 9.994341 -173.009876 60 38926ft 450kts
09-Jun-20 11:11 10.061283 -172.900609 58 38927ft 449kts
09-Jun-20 11:12 10.127679 -172.793870 58 38926ft 447kts
09-Jun-20 11:13 10.193705 -172.687605 59 38926ft 447kts
09-Jun-20 11:14 10.260105 -172.580169 59 38928ft 447kts
09-Jun-20 11:15 10.326025 -172.473341 59 38978ft 447kts
09-Jun-20 11:16 10.391862 -172.366551 59 39057ft 447kts
09-Jun-20 11:17 10.457352 -172.259824 59 39117ft 446kts
09-Jun-20 11:18 10.522989 -172.153001 59 39132ft 446kts
09-Jun-20 11:19 10.588810 -172.045907 59 39134ft 446kts
09-Jun-20 11:20 10.654297 -171.939272 59 39134ft 446kts
09-Jun-20 11:21 10.719778 -171.832535 59 39134ft 446kts
09-Jun-20 11:22 10.785290 -171.725640 59 39134ft 446kts
09-Jun-20 11:23 10.850904 -171.618478 59 39134ft 446kts
09-Jun-20 11:24 10.916207 -171.511700 59 39133ft 448kts
09-Jun-20 11:25 10.982529 -171.403119 58 39133ft 454kts
09-Jun-20 11:26 11.049410 -171.293258 58 39134ft 459kts
09-Jun-20 11:27 11.116504 -171.183204 58 39134ft 459kts
09-Jun-20 11:28 11.183977 -171.073107 58 39134ft 459kts
09-Jun-20 11:29 11.251129 -170.962821 58 39134ft 459kts
09-Jun-20 11:30 11.318204 -170.852483 57 39135ft 459kts
09-Jun-20 11:31 11.385360 -170.741915 57 39134ft 459kts
09-Jun-20 11:32 11.452063 -170.631935 57 39134ft 459kts
09-Jun-20 11:33 11.519235 -170.521065 57 39134ft 459kts
09-Jun-20 11:34 11.586245 -170.410352 57 39133ft 459kts
09-Jun-20 11:35 11.652991 -170.299718 58 39134ft 459kts
09-Jun-20 11:36 11.719732 -170.188876 58 39135ft 459kts
09-Jun-20 11:37 11.786425 -170.078299 58 39133ft 459kts
09-Jun-20 11:38 11.853131 -169.967565 58 39135ft 459kts
09-Jun-20 11:39 11.919881 -169.856657 58 39135ft 458kts
09-Jun-20 11:40 11.986429 -169.745950 57 39133ft 459kts
09-Jun-20 11:41 12.053036 -169.635031 58 39134ft 458kts
09-Jun-20 11:42 12.118226 -169.526497 57 39133ft 458kts
09-Jun-20 11:43 12.186349 -169.413493 58 39134ft 458kts
09-Jun-20 11:44 12.252900 -169.302144 58 39134ft 458kts
09-Jun-20 11:45 12.319027 -169.191165 58 39134ft 459kts
09-Jun-20 11:46 12.385285 -169.080207 58 39135ft 456kts
09-Jun-20 11:47 12.451057 -168.969885 59 39134ft 454kts
09-Jun-20 11:48 12.516597 -168.859787 59 39135ft 453kts
09-Jun-20 11:49 12.581948 -168.749908 59 39135ft 453kts
09-Jun-20 11:50 12.647463 -168.639627 59 39134ft 453kts
09-Jun-20 11:51 12.712737 -168.529630 59 39135ft 453kts
09-Jun-20 11:52 12.777918 -168.419654 59 39134ft 453kts
09-Jun-20 11:53 12.842748 -168.309978 59 39133ft 453kts
09-Jun-20 11:54 12.907913 -168.199406 59 39134ft 453kts
09-Jun-20 11:55 12.973013 -168.089127 59 39134ft 453kts
09-Jun-20 11:56 13.038332 -167.978301 58 39134ft 457kts
09-Jun-20 11:57 13.104261 -167.866358 58 39133ft 460kts
09-Jun-20 11:58 13.170656 -167.754374 58 39134ft 460kts
09-Jun-20 11:59 13.236655 -167.642221 58 39134ft 460kts
09-Jun-20 12:00 13.302812 -167.529490 58 39134ft 460kts
09-Jun-20 12:01 13.368754 -167.416975 58 39134ft 460kts
09-Jun-20 12:02 13.434407 -167.304606 58 39134ft 460kts
09-Jun-20 12:03 13.500032 -167.191988 58 39134ft 460kts
09-Jun-20 12:04 13.565904 -167.079098 58 39134ft 460kts
09-Jun-20 12:05 13.631619 -166.966358 58 39134ft 460kts
09-Jun-20 12:06 13.697244 -166.853625 57 39148ft 459kts
09-Jun-20 12:07 13.762872 -166.740765 57 39152ft 459kts
09-Jun-20 12:08 13.828343 -166.628029 57 39152ft 459kts
09-Jun-20 12:09 13.893832 -166.515079 57 39152ft 459kts
09-Jun-20 12:10 13.958342 -166.403680 57 39152ft 459kts
09-Jun-20 12:11 14.024330 -166.289310 58 39152ft 459kts
09-Jun-20 12:12 14.089306 -166.176516 58 39152ft 459kts
09-Jun-20 12:13 14.154750 -166.063708 58 39152ft 459kts
09-Jun-20 12:14 14.219866 -165.950888 58 39152ft 459kts
09-Jun-20 12:15 14.285061 -165.837539 58 39152ft 459kts
09-Jun-20 12:16 14.349755 -165.724893 58 39152ft 459kts
09-Jun-20 12:17 14.414723 -165.611605 58 39152ft 459kts
09-Jun-20 12:18 14.479459 -165.498576 58 39152ft 459kts
09-Jun-20 12:19 14.544524 -165.384789 58 39152ft 459kts
09-Jun-20 12:20 14.608830 -165.271835 58 39152ft 459kts
09-Jun-20 12:21 14.673398 -165.158399 58 39152ft 459kts
09-Jun-20 12:23 14.738141 -165.044668 58 39152ft 459kts
09-Jun-20 12:24 14.802711 -164.931086 58 39152ft 459kts
09-Jun-20 12:25 14.867444 -164.817086 58 39152ft 459kts
09-Jun-20 12:26 14.931466 -164.704203 58 39152ft 459kts
09-Jun-20 12:27 14.995533 -164.591035 58 39152ft 460kts
09-Jun-20 12:28 15.060372 -164.476312 58 39152ft 460kts
09-Jun-20 12:29 15.124922 -164.362231 58 39152ft 460kts
09-Jun-20 12:30 15.189586 -164.247662 59 39152ft 460kts
09-Jun-20 12:31 15.254403 -164.132407 59 39152ft 460kts
09-Jun-20 12:32 15.318707 -164.017959 59 39152ft 460kts
09-Jun-20 12:33 15.382953 -163.903441 59 39152ft 460kts
09-Jun-20 12:34 15.447152 -163.788832 59 39152ft 460kts
09-Jun-20 12:35 15.511261 -163.674198 59 39152ft 460kts
09-Jun-20 12:36 15.575367 -163.559410 59 39152ft 460kts
09-Jun-20 12:37 15.639196 -163.444927 59 39152ft 460kts
09-Jun-20 12:38 15.703091 -163.330097 59 39150ft 460kts
09-Jun-20 12:38 15.756323 -163.233920 59 39152ft 460kts
09-Jun-20 12:40 15.830583 -163.100054 59 39152ft 460kts
09-Jun-20 12:41 15.893995 -162.985609 59 39152ft 460kts
09-Jun-20 12:41 15.946761 -162.890220 59 39152ft 460kts
09-Jun-20 12:43 16.020974 -162.755856 59 39152ft 460kts
09-Jun-20 12:43 16.074016 -162.659668 59 39152ft 460kts
09-Jun-20 12:44 16.137874 -162.544258 59 39152ft 460kts
09-Jun-20 12:46 16.212193 -162.409520 59 39152ft 459kts
09-Jun-20 12:46 16.264831 -162.313495 60 39151ft 459kts
09-Jun-20 12:47 16.327944 -162.197930 60 39152ft 459kts
09-Jun-20 12:48 16.391025 -162.082591 60 39150ft 451kts
09-Jun-20 12:49 16.453590 -161.968057 60 39152ft 459kts
09-Jun-20 12:50 16.516736 -161.852248 60 39152ft 459kts
09-Jun-20 12:51 16.579513 -161.736940 60 39152ft 459kts
09-Jun-20 12:52 16.642570 -161.620917 60 39152ft 459kts
09-Jun-20 12:53 16.705639 -161.504674 60 39152ft 459kts
09-Jun-20 12:54 16.768275 -161.389039 60 39152ft 459kts
09-Jun-20 12:55 16.830697 -161.273284 60 39152ft 459kts
09-Jun-20 12:56 16.893397 -161.156933 60 39152ft 459kts
09-Jun-20 12:57 16.955790 -161.041151 60 39152ft 459kts
09-Jun-20 12:58 17.018418 -160.924670 59 39152ft 459kts
09-Jun-20 12:59 17.081036 -160.808064 59 39152ft 461kts
09-Jun-20 13:00 17.143959 -160.691407 58 39152ft 463kts
09-Jun-20 13:01 17.207014 -160.573968 58 39152ft 463kts
09-Jun-20 13:02 17.269754 -160.456557 59 39152ft 463kts
09-Jun-20 13:03 17.332217 -160.339423 59 39149ft 463kts
09-Jun-20 13:04 17.394791 -160.221401 59 39152ft 463kts
09-Jun-20 13:05 17.457347 -160.103642 59 39152ft 463kts
09-Jun-20 13:06 17.519684 -159.986148 59 39152ft 463kts
09-Jun-20 13:07 17.582250 -159.868041 59 39153ft 463kts
09-Jun-20 13:08 17.644686 -159.749958 59 39161ft 463kts
09-Jun-20 13:09 17.706800 -159.632340 59 39162ft 463kts
09-Jun-20 13:10 17.766399 -159.512717 65 39162ft 464kts
09-Jun-20 13:11 17.815312 -159.387227 66 39163ft 464kts
09-Jun-20 13:12 17.863948 -159.262070 66 39161ft 464kts
09-Jun-20 13:13 17.912611 -159.137029 66 39158ft 464kts
09-Jun-20 13:14 17.961306 -159.011803 66 39155ft 463kts
09-Jun-20 13:15 18.010031 -158.886268 66 39137ft 463kts
09-Jun-20 13:16 18.058442 -158.761324 66 39121ft 463kts
09-Jun-20 13:17 18.106914 -158.635994 66 39117ft 463kts
09-Jun-20 13:18 18.155503 -158.511180 66 39117ft 463kts
09-Jun-20 13:19 18.203847 -158.385701 66 39117ft 463kts
09-Jun-20 13:20 18.251935 -158.260044 66 39116ft 463kts
09-Jun-20 13:21 18.299896 -158.134646 66 39117ft 463kts
09-Jun-20 13:22 18.347886 -158.009049 66 39117ft 463kts
09-Jun-20 13:23 18.395886 -157.883179 66 39117ft 463kts
09-Jun-20 13:24 18.443614 -157.757716 66 39117ft 463kts
09-Jun-20 13:25 18.491200 -157.632348 66 39117ft 463kts
09-Jun-20 13:26 18.538930 -157.506297 66 39117ft 463kts
09-Jun-20 13:27 18.586475 -157.380460 66 39117ft 463kts
09-Jun-20 13:28 18.633893 -157.254242 67 39117ft 463kts
09-Jun-20 13:29 18.681211 -157.128301 67 39117ft 463kts
09-Jun-20 13:30 18.728637 -157.001934 67 38515ft 476kts
09-Jun-20 13:31 18.778189 -156.869403 67 37028ft 487kts
09-Jun-20 13:32 18.827858 -156.736287 67 35528ft 489kts
09-Jun-20 13:33 18.876798 -156.604861 67 33978ft 473kts
09-Jun-20 13:34 18.924244 -156.477335 68 32448ft 463kts
09-Jun-20 13:35 18.970761 -156.351844 68 30963ft 453kts
09-Jun-20 13:36 19.015632 -156.230108 69 29492ft 442kts
09-Jun-20 13:37 19.059774 -156.110403 70 28022ft 431kts
09-Jun-20 13:38 19.102711 -155.993839 70 26555ft 418kts
09-Jun-20 13:39 19.144621 -155.880883 71 24669ft 407kts
09-Jun-20 13:40 19.185056 -155.770700 71 22453ft 396kts
09-Jun-20 13:41 19.222326 -155.668935 71 20342ft 352kts
09-Jun-20 13:42 19.248854 -155.575362 79 18203ft 321kts
09-Jun-20 13:43 19.268983 -155.482935 79 16195ft 320kts
09-Jun-20 13:44 19.287945 -155.391376 79 14175ft 317kts
09-Jun-20 13:45 19.315092 -155.305607 66 12044ft 288kts
09-Jun-20 13:46 19.347359 -155.229907 67 9846ft 279kts
09-Jun-20 13:47 19.397021 -155.171687 29 7842ft 274kts
09-Jun-20 13:48 19.466000 -155.153914 0 5903ft 252kts
09-Jun-20 13:49 19.530942 -155.153069 2 4014ft 228kts
09-Jun-20 13:50 19.589158 -155.151250 3 3242ft 203kts
09-Jun-20 13:51 19.643477 -155.149407 3 3235ft 194kts
09-Jun-20 13:52 19.696310 -155.147586 3 2608ft 184kts
09-Jun-20 13:53 19.723726 -155.124153 109 1578ft 155kts
09-Jun-20 13:54 19.721505 -155.081624 89 530ft 136kts
09-Jun-20 13:55 19.721366 -155.044550 88 45ft 76kts
09-Jun-20 13:56 19.719182 -155.040557 181 50ft 25kts
09-Jun-20 13:57 19.715850 -155.042440 180 58ft 11kts
09-Jun-20 13:58 19.715501 -155.042431 180 60ft 0kts

Navigation Log

Ident Type
Flight plan parsing failed, navigation log unavailable